createdAt,value
2022-08-20T00:02:10.202Z,31
2022-08-20T00:07:39.337Z,31
2022-08-20T00:13:09.664Z,31
2022-08-20T00:18:39.896Z,31
2022-08-20T00:24:09.170Z,31
2022-08-20T00:29:39.412Z,31
2022-08-20T00:35:09.633Z,31
2022-08-20T00:40:38.896Z,31
2022-08-20T00:46:09.123Z,31
2022-08-20T00:51:38.417Z,31
2022-08-20T00:57:08.719Z,31
2022-08-20T01:02:38.970Z,31
2022-08-20T01:08:08.267Z,31
2022-08-20T01:13:38.661Z,31
2022-08-20T01:19:29.513Z,31
2022-08-20T01:24:38.159Z,31
2022-08-20T01:30:08.447Z,31
2022-08-20T01:35:37.758Z,31
2022-08-20T01:41:08.057Z,31
2022-08-20T01:46:44.086Z,31
2022-08-20T01:52:07.727Z,31
2022-08-20T01:57:38.044Z,31
2022-08-20T02:03:07.322Z,31
2022-08-20T02:08:37.585Z,30.9
2022-08-20T02:14:07.910Z,30.9
2022-08-20T02:19:37.211Z,30.9
2022-08-20T02:25:07.531Z,30.9
2022-08-20T02:30:37.820Z,30.9
2022-08-20T02:36:07.152Z,30.9
2022-08-20T02:41:37.474Z,30.9
2022-08-20T02:47:06.773Z,30.9
2022-08-20T02:52:36.080Z,30.9
2022-08-20T02:58:06.384Z,30.9
2022-08-20T03:03:36.669Z,30.9
2022-08-20T03:09:05.983Z,30.9
2022-08-20T03:14:36.310Z,30.9
2022-08-20T03:20:05.664Z,30.9
2022-08-20T03:25:35.962Z,30.9
2022-08-20T03:31:06.277Z,30.9
2022-08-20T03:36:35.635Z,30.8
2022-08-20T03:42:05.910Z,30.8
2022-08-20T03:47:36.205Z,30.8
2022-08-20T03:53:05.524Z,30.8
2022-08-20T03:58:36.581Z,30.8
2022-08-20T04:04:05.089Z,30.8
2022-08-20T04:09:35.368Z,30.8
2022-08-20T04:15:05.651Z,30.8
2022-08-20T04:20:34.961Z,30.8
2022-08-20T04:26:05.251Z,30.7
2022-08-20T04:31:34.600Z,30.8
2022-08-20T04:37:04.861Z,30.8
2022-08-20T04:42:35.175Z,30.7
2022-08-20T04:48:04.567Z,30.7
2022-08-20T04:53:34.914Z,30.7
2022-08-20T04:59:05.238Z,30.7
2022-08-20T05:04:34.613Z,30.7
2022-08-20T05:10:04.866Z,30.7
2022-08-20T05:15:34.178Z,30.7
2022-08-20T05:21:04.467Z,30.7
2022-08-20T05:26:34.751Z,30.7
2022-08-20T05:32:04.078Z,30.7
2022-08-20T05:37:34.375Z,30.7
2022-08-20T05:43:03.711Z,30.7
2022-08-20T05:48:34.010Z,30.7
2022-08-20T05:54:04.325Z,30.7
2022-08-20T05:59:33.601Z,30.7
2022-08-20T06:05:03.902Z,30.6
2022-08-20T06:10:34.208Z,30.4
2022-08-20T06:16:03.528Z,30.2
2022-08-20T06:21:33.845Z,30
2022-08-20T06:27:03.333Z,29.9
2022-08-20T06:32:33.030Z,29.7
2022-08-20T06:38:03.077Z,29.5
2022-08-20T06:43:33.449Z,29.1
2022-08-20T06:49:02.910Z,28.9
2022-08-20T06:54:33.307Z,29.2
2022-08-20T07:00:03.702Z,29.5
2022-08-20T07:05:33.143Z,29.6
2022-08-20T07:11:03.564Z,29.8
2022-08-20T07:16:32.951Z,29.9
2022-08-20T07:22:03.301Z,30
2022-08-20T07:27:33.711Z,30
2022-08-20T07:33:03.148Z,30.1
2022-08-20T07:38:33.529Z,30.1
2022-08-20T07:44:03.911Z,30.2
2022-08-20T07:49:33.301Z,30.2
2022-08-20T07:55:03.670Z,30.3
2022-08-20T08:00:33.090Z,30.3
2022-08-20T08:06:03.419Z,30.4
2022-08-20T08:11:33.830Z,30.4
2022-08-20T08:17:03.278Z,30.4
2022-08-20T08:22:33.524Z,30.5
2022-08-20T08:28:02.885Z,30.5
2022-08-20T08:33:33.235Z,30.6
2022-08-20T08:39:03.530Z,30.6
2022-08-20T08:44:32.954Z,30.6
2022-08-20T08:50:03.294Z,30.7
2022-08-20T08:55:33.625Z,30.7
2022-08-20T09:01:05.777Z,30.8
2022-08-20T09:06:33.292Z,30.8
2022-08-20T09:12:02.653Z,30.6
2022-08-20T09:17:33.006Z,30.5
2022-08-20T09:23:03.356Z,30.3
2022-08-20T09:28:35.112Z,30.3
2022-08-20T09:34:03.047Z,30.5
2022-08-20T09:39:32.428Z,30.5
2022-08-20T09:45:02.742Z,30.6
2022-08-20T09:50:33.079Z,30.7
2022-08-20T09:56:02.376Z,30.8
2022-08-20T10:01:32.842Z,30.9
2022-08-20T10:07:03.047Z,31
2022-08-20T10:12:32.346Z,31.1
2022-08-20T10:18:01.732Z,31.2
2022-08-20T10:23:31.854Z,31.2
2022-08-20T10:29:01.131Z,31.2
2022-08-20T10:34:31.401Z,31.3
2022-08-20T10:40:01.731Z,31.4
2022-08-20T10:45:30.946Z,31.5
2022-08-20T10:51:01.167Z,31.5
2022-08-20T10:56:31.421Z,31.5
2022-08-20T11:02:00.781Z,31.5
2022-08-20T11:07:50.466Z,31.5
2022-08-20T11:13:00.225Z,31.5
2022-08-20T11:18:30.496Z,31.5
2022-08-20T11:24:02.909Z,31.5
2022-08-20T11:29:33.920Z,31.6
2022-08-20T11:35:00.235Z,31.7
2022-08-20T11:40:30.595Z,31.8
2022-08-20T11:45:59.684Z,31.8
2022-08-20T11:51:29.864Z,31.9
2022-08-20T11:56:59.114Z,32
2022-08-20T12:02:29.793Z,32
2022-08-20T12:07:59.524Z,32.1
2022-08-20T12:13:30.632Z,32
2022-08-20T12:18:58.933Z,31.9
2022-08-20T12:24:28.185Z,31.7
2022-08-20T12:29:58.405Z,31.7
2022-08-20T12:35:28.617Z,31.7
2022-08-20T12:40:57.851Z,31.7
2022-08-20T12:46:28.081Z,31.7
2022-08-20T12:51:58.258Z,31.7
2022-08-20T12:57:27.466Z,31.7
2022-08-20T13:02:57.878Z,31.8
2022-08-20T13:08:26.884Z,31.9
2022-08-20T13:13:57.103Z,31.8
2022-08-20T13:19:27.262Z,31.9
2022-08-20T13:24:56.442Z,31.8
2022-08-20T13:30:26.644Z,31.9
2022-08-20T13:35:56.793Z,31.9
2022-08-20T13:41:25.989Z,31.8
2022-08-20T13:46:56.139Z,31.8
2022-08-20T13:52:25.295Z,31.9
2022-08-20T13:57:54.459Z,32.1
2022-08-20T14:03:25.241Z,32
2022-08-20T14:08:54.794Z,31.9
2022-08-20T14:14:23.996Z,31.8
2022-08-20T14:19:56.754Z,31.8
2022-08-20T14:25:23.388Z,31.7
2022-08-20T14:30:53.894Z,31.7
2022-08-20T14:36:23.781Z,31.5
2022-08-20T14:41:52.984Z,31.5
2022-08-20T14:47:23.154Z,31.4
2022-08-20T14:52:53.484Z,31.3
2022-08-20T14:58:22.583Z,31.3
2022-08-20T15:03:52.787Z,31.3
2022-08-20T15:09:23.032Z,31.3
2022-08-20T15:14:52.270Z,31.3
2022-08-20T15:20:22.488Z,31.3
2022-08-20T15:25:51.719Z,31.3
2022-08-20T15:31:21.931Z,31.3
2022-08-20T15:36:52.133Z,31.3
2022-08-20T15:42:22.495Z,31.3
2022-08-20T15:47:52.809Z,31.3
2022-08-20T15:53:22.052Z,31.2
2022-08-20T15:58:52.305Z,31.2
2022-08-20T16:04:22.591Z,31.2
2022-08-20T16:09:51.873Z,31.2
2022-08-20T16:15:22.156Z,31.1
2022-08-20T16:20:52.445Z,31.1
2022-08-20T16:26:21.754Z,31.1
2022-08-20T16:31:51.989Z,31.1
2022-08-20T16:37:21.258Z,31.1
2022-08-20T16:42:51.541Z,31.1
2022-08-20T16:48:21.791Z,31.1
2022-08-20T16:53:51.110Z,31.1
2022-08-20T16:59:27.285Z,31.1
2022-08-20T17:04:59.084Z,31
2022-08-20T17:10:21.025Z,31
2022-08-20T17:15:53.209Z,31
2022-08-20T17:21:20.602Z,31
2022-08-20T17:26:50.896Z,31
2022-08-20T17:32:21.192Z,31
2022-08-20T17:37:49.517Z,31
2022-08-20T17:43:19.823Z,31
2022-08-20T17:48:50.124Z,31
2022-08-20T17:54:19.423Z,31
2022-08-20T18:00:00.738Z,30.9
2022-08-20T18:05:18.998Z,31
2022-08-20T18:10:49.262Z,30.9
2022-08-20T18:16:19.508Z,30.9
2022-08-20T18:21:48.780Z,30.9
2022-08-20T18:27:19.032Z,30.9
2022-08-20T18:32:49.316Z,30.9
2022-08-20T18:38:18.611Z,30.9
2022-08-20T18:43:48.914Z,30.9
2022-08-20T18:49:18.190Z,30.9
2022-08-20T18:54:48.498Z,30.9
2022-08-20T19:00:18.800Z,30.9
2022-08-20T19:05:48.245Z,30.8
2022-08-20T19:11:18.534Z,30.8
2022-08-20T19:16:47.847Z,30.7
2022-08-20T19:22:18.143Z,30.8
2022-08-20T19:27:48.420Z,30.8
2022-08-20T19:33:17.714Z,30.8
2022-08-20T19:38:47.998Z,30.8
2022-08-20T19:44:18.310Z,30.8
2022-08-20T19:49:47.590Z,30.8
2022-08-20T19:55:17.852Z,30.8
2022-08-20T20:00:47.151Z,30.8
2022-08-20T20:06:17.567Z,30.8
2022-08-20T20:11:47.805Z,30.8
2022-08-20T20:17:22.413Z,30.7
2022-08-20T20:22:47.347Z,30.8
2022-08-20T20:28:16.600Z,30.8
2022-08-20T20:33:46.904Z,30.8
2022-08-20T20:39:17.113Z,30.7
2022-08-20T20:44:46.400Z,30.7
2022-08-20T20:50:16.695Z,30.7
2022-08-20T20:55:46.939Z,30.7
2022-08-20T21:01:16.222Z,30.7
2022-08-20T21:06:46.618Z,30.7
2022-08-20T21:12:16.827Z,30.7
2022-08-20T21:17:45.110Z,30.7
2022-08-20T21:23:15.357Z,30.7
2022-08-20T21:28:45.615Z,30.7
2022-08-20T21:34:14.864Z,30.7
2022-08-20T21:39:45.200Z,30.7
2022-08-20T21:45:15.336Z,30.7
2022-08-20T21:50:44.586Z,30.6
2022-08-20T21:56:14.826Z,30.6
2022-08-20T22:01:44.206Z,30.6
2022-08-20T22:07:14.358Z,30.6
2022-08-20T22:12:44.598Z,30.6
2022-08-20T22:18:13.872Z,30.5
2022-08-20T22:23:44.126Z,30.5
2022-08-20T22:29:14.375Z,30.5
2022-08-20T22:34:43.656Z,30.5
2022-08-20T22:40:14.037Z,30.5
2022-08-20T22:45:43.229Z,30.5
2022-08-20T22:51:13.511Z,30.5
2022-08-20T22:56:43.818Z,30.5
2022-08-20T23:02:13.136Z,30.5
2022-08-20T23:07:43.379Z,30.5
2022-08-20T23:13:12.693Z,30.5
2022-08-20T23:18:43.057Z,30.5
2022-08-20T23:24:14.427Z,30.5
2022-08-20T23:29:42.545Z,30.5
2022-08-20T23:35:12.851Z,30.4
2022-08-20T23:40:43.138Z,30.5
2022-08-20T23:46:12.438Z,30.5
2022-08-20T23:51:42.731Z,30.5
2022-08-20T23:57:12.121Z,30.4
